This is the latest recevied weather packets stored in our database for station/object K4DFD-13. If no packets are shown the sender has not sent any weather packets the latest 1 day(s).
| Time | Temp. | Humidity | Pressure | Rain* | Wind** | Luminosity | Snow |
|---|---|---|---|---|---|---|---|
| 1778047361 | 15.56° C | 65% | 1012.5 hPa | 0 mm | - | - | - |
| 1778047060 | 15.56° C | 65% | 1012.8 hPa | 0 mm | - | - | - |
| 1778046760 | 15.56° C | 65% | 1012.9 hPa | 0 mm | - | - | - |
| 1778046160 | 16.67° C | 63% | 1012.8 hPa | 0 mm | - | - | - |
| 1778045558 | 16.67° C | 61% | 1013 hPa | 0 mm | - | - | - |
| 1778045258 | 16.67° C | 61% | 1013 hPa | 0 mm | - | - | - |
| 1778044657 | 16.11° C | 63% | 1013.2 hPa | 0 mm | - | - | - |
| 1778044056 | 15.56° C | 64% | 1013.4 hPa | 0 mm | - | - | - |
| 1778043755 | 16.11° C | 63% | 1013.3 hPa | 0 mm | - | - | - |
| 1778043455 | 16.11° C | 62% | 1013.2 hPa | 0 mm | - | - | - |
| 1778043155 | 16.67° C | 62% | 1013.2 hPa | 0 mm | - | - | - |
| 1778042854 | 16.67° C | 60% | 1013.2 hPa | 0 mm | - | - | - |
| 1778042554 | 17.22° C | 59% | 1013.3 hPa | 0 mm | - | - | - |
| 1778041653 | 17.22° C | 58% | 1013.4 hPa | 0 mm | - | - | - |
| 1778041352 | 17.22° C | 58% | 1013.3 hPa | 0 mm | - | - | - |
| 1778041052 | 17.22° C | 58% | 1013.3 hPa | 0 mm | - | - | - |
| 1778040451 | 17.22° C | 57% | 1013.4 hPa | 0 mm | - | - | - |
| 1778040151 | 17.22° C | 57% | 1013.4 hPa | 0 mm | - | - | - |
| 1778039851 | 17.22° C | 57% | 1013.5 hPa | 0 mm | - | - | - |
| 1778039550 | 17.22° C | 57% | 1013.4 hPa | 0 mm | - | - | - |
| 1778039249 | 17.22° C | 56% | 1013.5 hPa | 0 mm | - | - | - |
| 1778038949 | 17.22° C | 56% | 1013.5 hPa | 0 mm | - | - | - |
| 1778038348 | 17.22° C | 56% | 1013.5 hPa | 0 mm | - | - | - |
| 1778038048 | 17.22° C | 56% | 1013.5 hPa | 0 mm | - | - | - |
| 1778037427 | 17.78° C | 55% | 1013.4 hPa | 0 mm | - | - | - |
* Rain latest hour (hover to see other rain measurements)
** Current wind speed in m/s (hover to see current wind gust speed)